Weather History for KCMR - January, 2013

Change the Weather History Date:

Saturday, January 26, 2013

  Actual Average (KFLG) Record (KFLG)
Temperature  
Mean Temperature 40 °F 30 °F  
Max Temperature 42 °F 43 °F 60 °F (1987)
Min Temperature 37 °F 18 °F -15 °F (1937)
Degree Days  
Heating Degree Days 26 35  
Month to date heating degree days 916  
Since 1 July heating degree days 3744  
Cooling Degree Days 0 0  
Month to date cooling degree days 0  
Year to date cooling degree days 0  
Moisture  
Dew Point 39 °F    
Average Humidity 95    
Maximum Humidity 100    
Minimum Humidity 93    
Precipitation  
Precipitation 0.95 in 0.06 in 1.55 in (2013)
Month to date precipitation 1.73  
Year to date precipitation 1.73  
Snow  
Snow 0.00 in 0.80 in 13.10 in (1948)
Month to date snowfall 19.1  
Since 1 July snowfall 48.2  
Snow Depth -    
Sea Level Pressure  
Sea Level Pressure 30.05 in    
Wind  
Wind Speed 7 mph (South)    
Max Wind Speed 15 mph    
Max Gust Speed 23 mph    
Visibility 4 miles    
Events      
T = Trace of Precipitation, MM = Missing Value Source: NWS Daily Summary

Daily Weather History Graph

Daily Weather History Graph

Search for Another Location

Airport or City:

Trip Planner

Search our weather history database for the weather conditions in past years. The results will help you decide how hot, cold, wet, or windy it might be!

Date:

Astronomy

Jan. 26, 2013 Rise Set
Actual Time 7:32 AM MST 5:51 PM MST
Civil Twilight 7:05 AM MST 6:18 PM MST
Nautical Twilight 6:34 AM MST 6:48 PM MST
Astronomical Twilight 6:04 AM MST 7:19 PM MST
Moon 5:47 PM MST (1/26) 6:53 AM MST (1/26)
Length of Visible Light 11h 13m
Length of Day
10h 19m
Full, 100% of the Moon is Illuminated
Jan 26
Full
Jan 26
Full
Feb 3
Last Quarter
Feb 10
New
Feb 17
First Quarter

Hourly Weather History & Observations

Time (MST) Temp. Windchill Dew Point Humidity Pressure Visibility Wind Dir Wind Speed Gust Speed Precip Events Conditions
12:15 AM 39.2 °F 35.0 °F 39.2 °F 100% 30.22 in 5.0 mi SE 5.8 mph - 0.02 in   Overcast
12:35 AM 39.2 °F 35.9 °F 39.2 °F 100% 30.21 in 5.0 mi SSE 4.6 mph - 0.06 in   Overcast
12:55 AM 39.2 °F 35.9 °F 39.2 °F 100% 30.21 in 4.0 mi South 4.6 mph - 0.08 in   Overcast
1:15 AM 39.2 °F 35.0 °F 39.2 °F 100% 30.20 in 3.0 mi SE 5.8 mph - 0.02 in   Overcast
1:35 AM 39.2 °F 34.2 °F 39.2 °F 100% 30.18 in 5.0 mi ESE 6.9 mph - 0.04 in   Overcast
1:55 AM 39.2 °F 34.2 °F 39.2 °F 100% 30.17 in 9.0 mi SE 6.9 mph - 0.06 in   Overcast
2:15 AM 39.2 °F 35.0 °F 39.2 °F 100% 30.16 in 6.0 mi SE 5.8 mph - N/A   Overcast
2:35 AM 39.2 °F 34.2 °F 39.2 °F 100% 30.15 in 10.0 mi SE 6.9 mph - 0.01 in   Overcast
2:55 AM 39.2 °F 33.6 °F 37.4 °F 93% 30.14 in 6.0 mi SSE 8.1 mph - 0.01 in   Mostly Cloudy
3:15 AM 39.2 °F 33.6 °F 37.4 °F 93% 30.12 in 7.0 mi ESE 8.1 mph - N/A   Overcast
3:35 AM 39.2 °F 35.9 °F 37.4 °F 93% 30.11 in 6.0 mi ESE 4.6 mph - N/A   Overcast
3:55 AM 39.2 °F 37.0 °F 37.4 °F 93% 30.11 in 2.5 mi SSW 3.5 mph - 0.02 in   Overcast
4:15 AM 39.2 °F 37.0 °F 37.4 °F 93% 30.10 in 4.0 mi SSE 3.5 mph - 0.03 in   Overcast
4:35 AM 39.2 °F 37.0 °F 37.4 °F 93% 30.09 in 4.0 mi SE 3.5 mph - 0.05 in   Overcast
4:55 AM 39.2 °F - 37.4 °F 93% 30.09 in 5.0 mi Calm Calm - 0.06 in   Overcast
5:15 AM 39.2 °F - 37.4 °F 93% 30.08 in 1.0 mi Calm Calm - 0.03 in   Overcast
5:35 AM 39.2 °F 37.0 °F 37.4 °F 93% 30.07 in 1.0 mi East 3.5 mph - 0.04 in   Overcast
5:55 AM 37.4 °F 34.9 °F 37.4 °F 100% 30.06 in 10.0 mi ESE 3.5 mph - 0.04 in   Overcast
6:15 AM 39.2 °F 33.0 °F 39.2 °F 100% 30.05 in 8.0 mi SE 9.2 mph 16.1 mph N/A   Overcast
6:35 AM 39.2 °F 33.6 °F 39.2 °F 100% 30.05 in 4.0 mi SE 8.1 mph - 0.01 in   Overcast
6:55 AM 39.2 °F 33.6 °F 39.2 °F 100% 30.04 in 5.0 mi SE 8.1 mph - 0.01 in   Overcast
7:15 AM 39.2 °F 33.0 °F 39.2 °F 100% 30.03 in 7.0 mi SSE 9.2 mph - N/A   Overcast
7:35 AM 39.2 °F 33.0 °F 39.2 °F 100% 30.03 in 3.0 mi SSE 9.2 mph - N/A   Overcast
7:55 AM 39.2 °F 33.0 °F 39.2 °F 100% 30.03 in 2.5 mi SSE 9.2 mph - N/A   Overcast
8:15 AM 39.2 °F 33.0 °F 39.2 °F 100% 30.04 in 3.0 mi SE 9.2 mph - 0.01 in   Overcast
8:35 AM 39.2 °F 34.2 °F 39.2 °F 100% 30.04 in 2.5 mi SSE 6.9 mph - 0.04 in   Overcast
8:55 AM 41.0 °F 35.8 °F 39.2 °F 93% 30.04 in 4.0 mi SE 8.1 mph - 0.08 in   Overcast
9:15 AM 41.0 °F 34.7 °F 41.0 °F 100% 30.03 in 4.0 mi SSE 10.4 mph - 0.02 in   Overcast
9:35 AM 42.8 °F 36.6 °F 41.0 °F 93% 30.03 in 5.0 mi SSE 11.5 mph - 0.03 in   Overcast
9:55 AM 42.8 °F 37.5 °F 41.0 °F 93% 30.03 in 6.0 mi SSE 9.2 mph - 0.04 in   Overcast
10:15 AM 42.8 °F 39.3 °F 41.0 °F 93% 30.03 in 5.0 mi South 5.8 mph - N/A   Overcast
10:35 AM 42.8 °F 39.3 °F 41.0 °F 93% 30.03 in 5.0 mi South 5.8 mph - N/A   Overcast
10:55 AM 42.8 °F 41.1 °F 41.0 °F 93% 30.03 in 6.0 mi SSW 3.5 mph - 0.01 in   Overcast
11:15 AM 42.8 °F - 41.0 °F 93% 30.03 in 5.0 mi Calm Calm - 0.01 in   Overcast
11:35 AM 42.8 °F 39.3 °F 41.0 °F 93% 30.03 in 4.0 mi South 5.8 mph - 0.02 in   Overcast
11:55 AM 42.8 °F 38.0 °F 41.0 °F 93% 30.02 in 4.0 mi South 8.1 mph - 0.03 in   Overcast
12:15 PM 42.8 °F 40.1 °F 41.0 °F 93% 30.01 in 4.0 mi South 4.6 mph - 0.01 in   Overcast
12:35 PM 42.8 °F 36.2 °F 41.0 °F 93% 29.99 in 4.0 mi South 12.7 mph - 0.02 in   Overcast
12:55 PM 42.8 °F 37.0 °F 41.0 °F 93% 29.98 in 3.0 mi South 10.4 mph - 0.03 in   Overcast
1:15 PM 42.8 °F 38.0 °F 41.0 °F 93% 29.98 in 3.0 mi South 8.1 mph - 0.01 in   Overcast
1:35 PM 41.0 °F 37.1 °F 39.2 °F 93% 29.97 in 3.0 mi South 5.8 mph - 0.03 in   Overcast
1:55 PM 41.0 °F 33.9 °F 39.2 °F 93% 29.97 in 2.0 mi SSW 12.7 mph 20.7 mph 0.06 in   Overcast
2:15 PM 41.0 °F 35.8 °F 39.2 °F 93% 29.97 in 3.0 mi SSW 8.1 mph - 0.02 in   Mostly Cloudy
2:35 PM 41.0 °F 34.7 °F 39.2 °F 93% 29.97 in 3.0 mi SSW 10.4 mph - 0.03 in   Mostly Cloudy
2:55 PM 41.0 °F 35.2 °F 39.2 °F 93% 29.97 in 3.0 mi SSW 9.2 mph 17.3 mph 0.04 in   Overcast
3:15 PM 41.0 °F 33.9 °F 39.2 °F 93% 29.97 in 3.0 mi SSW 12.7 mph - 0.01 in   Overcast
3:35 PM 42.8 °F 36.6 °F 41.0 °F 93% 29.97 in 3.0 mi SSW 11.5 mph 17.3 mph 0.02 in   Overcast
3:55 PM 41.0 °F 35.8 °F 41.0 °F 100% 29.97 in 3.0 mi SSW 8.1 mph 18.4 mph 0.03 in   Overcast
4:15 PM 42.8 °F 37.0 °F 41.0 °F 93% 29.97 in 2.0 mi SSW 10.4 mph - 0.01 in   Overcast
4:35 PM 41.0 °F 33.5 °F 41.0 °F 100% 29.97 in 2.0 mi SW 13.8 mph - 0.02 in   Overcast
4:55 PM 41.0 °F 34.3 °F 39.2 °F 93% 29.98 in 2.5 mi SW 11.5 mph 21.9 mph 0.04 in   Overcast
5:15 PM 41.0 °F 34.3 °F 39.2 °F 93% 29.98 in 2.0 mi SSW 11.5 mph 20.7 mph 0.03 in   Overcast
5:55 PM 41.0 °F 33.9 °F 39.2 °F 93% 29.99 in 2.5 mi SSW 12.7 mph 19.6 mph 0.10 in   Overcast
6:15 PM 41.0 °F 33.1 °F 39.2 °F 93% 29.99 in 2.5 mi SSW 15.0 mph 21.9 mph 0.02 in   Overcast
6:35 PM 41.0 °F 34.7 °F 39.2 °F 93% 30.00 in 2.5 mi SSW 10.4 mph 18.4 mph 0.02 in   Overcast
6:55 PM 41.0 °F 34.3 °F 39.2 °F 93% 30.01 in 3.0 mi SSW 11.5 mph 19.6 mph 0.04 in   Overcast
7:15 PM 39.2 °F 30.8 °F 37.4 °F 93% 30.02 in 4.0 mi SSW 15.0 mph 23.0 mph 0.01 in   Overcast
7:35 PM 39.2 °F 32.5 °F 37.4 °F 93% 30.02 in 3.0 mi SSW 10.4 mph 19.6 mph 0.04 in   Overcast
7:55 PM 39.2 °F 32.0 °F 37.4 °F 93% 30.03 in 4.0 mi SW 11.5 mph 19.6 mph 0.06 in   Overcast
8:15 PM 39.2 °F 32.5 °F 37.4 °F 93% 30.03 in 3.0 mi SW 10.4 mph - 0.01 in   Overcast
8:35 PM 39.2 °F 33.0 °F 37.4 °F 93% 30.03 in 5.0 mi SW 9.2 mph - 0.02 in   Mostly Cloudy
8:55 PM 39.2 °F 34.2 °F 37.4 °F 93% 30.04 in 6.0 mi SW 6.9 mph - 0.02 in   Overcast
9:15 PM 39.2 °F 33.0 °F 37.4 °F 93% 30.04 in 7.0 mi SW 9.2 mph - N/A   Overcast
9:35 PM 39.2 °F 31.6 °F 37.4 °F 93% 30.04 in 2.0 mi SW 12.7 mph 17.3 mph 0.01 in   Overcast
9:55 PM 39.2 °F 32.5 °F 37.4 °F 93% 30.04 in 1.8 mi SW 10.4 mph - 0.01 in   Overcast
10:15 PM 39.2 °F 33.0 °F 39.2 °F 100% 30.05 in 3.0 mi SW 9.2 mph - 0.01 in   Overcast
10:35 PM 39.2 °F 33.6 °F 37.4 °F 93% 30.05 in 3.0 mi SW 8.1 mph 16.1 mph 0.01 in   Overcast
10:55 PM 39.2 °F 33.6 °F 37.4 °F 93% 30.05 in 1.8 mi SW 8.1 mph - 0.02 in   Overcast
11:15 PM 39.2 °F 33.0 °F 37.4 °F 93% 30.06 in 2.0 mi SW 9.2 mph - 0.01 in   Overcast
11:35 PM 39.2 °F 37.0 °F 37.4 °F 93% 30.06 in 3.0 mi SW 3.5 mph - 0.05 in   Overcast
11:55 PM 39.2 °F 33.6 °F 37.4 °F 93% 30.06 in 2.5 mi SW 8.1 mph - 0.06 in   Overcast